Terminal Aerodrome Forecast
Issued by NWS Atlanta, GA

Current Version | Previous Version | Text Only | Print | Product List | Glossary On
Versions: 1 2 3 4 5 6 7 8 9 10 11 12 13 14 15 16 17 18 19 20 21 22
000
FTUS42 KFFC 011735
TAFMCN
TAF
KMCN 011735Z 0118/0218 VRB03KT P6SM SCT035 SCT250
     FM020000 VRB03KT P6SM SCT250
     FM021600 35004KT P6SM FEW035 SCT250=

USA.gov is the U.S. government's official web portal to all federal, state and local government web resources and services.